Time;durP1;ratioP1;P1;durP2;ratioP2;P2;SDS_P1;SDS_P2;PMS_P1;PMS_P2;Temp;Humidity;BMP_temperature;BMP_pressure;BME280_temperature;BME280_humidity;BME280_pressure;Samples;Min_cycle;Max_cycle;Signal;HPM_P1;HPM_P2
2023/07/26 00:00:42;;;;;;;;;3.67;3.67;;;;;16.28;57.86;100778.28;5114836;27;45522;-75
2023/07/26 00:03:07;;;;;;;;;5.00;5.00;;;;;16.30;57.77;100781.72;5136678;27;45251;-76
2023/07/26 00:05:33;;;;;;;;;4.67;4.67;;;;;16.29;57.53;100774.63;5119597;27;45349;-76
2023/07/26 00:07:58;;;;;;;;;4.33;4.33;;;;;16.29;57.11;100785.38;5137530;27;46343;-75
2023/07/26 00:10:27;;;;;;;;;6.00;5.67;;;;;16.30;57.37;100792.44;5122407;27;45324;-76
2023/07/26 00:12:55;;;;;;;;;4.00;4.00;;;;;16.30;57.40;100786.22;5118437;27;45237;-78
2023/07/26 00:15:20;;;;;;;;;4.67;4.00;;;;;16.25;57.56;100781.19;5137468;27;45331;-75
2023/07/26 00:17:46;;;;;;;;;6.00;6.00;;;;;16.22;57.70;100773.38;5137097;27;45286;-77
2023/07/26 00:20:11;;;;;;;;;6.67;5.00;;;;;16.18;57.69;100774.59;5123717;27;45388;-76
2023/07/26 00:22:36;;;;;;;;;5.00;5.00;;;;;16.24;57.68;100792.91;5098157;27;45509;-75
2023/07/26 00:25:02;;;;;;;;;6.00;6.00;;;;;16.20;57.58;100788.75;5140752;27;45597;-76
2023/07/26 00:27:27;;;;;;;;;2.00;1.00;;;;;16.20;57.55;100792.28;5140704;27;45428;-75
2023/07/26 00:29:53;;;;;;;;;5.00;5.00;;;;;16.13;57.90;100784.81;5130059;27;45479;-74
2023/07/26 00:32:18;;;;;;;;;3.33;3.33;;;;;16.19;57.94;100800.47;5120040;27;45415;-76
2023/07/26 00:34:43;;;;;;;;;4.33;4.33;;;;;16.13;57.86;100788.34;5118255;27;45439;-73
2023/07/26 00:37:09;;;;;;;;;8.33;6.00;;;;;16.16;57.93;100798.00;5140527;27;49603;-76
2023/07/26 00:39:34;;;;;;;;;5.00;5.00;;;;;16.09;58.09;100794.06;5139706;27;45391;-76
2023/07/26 00:41:59;;;;;;;;;3.67;3.67;;;;;16.10;57.98;100795.78;5140734;27;45370;-74
2023/07/26 00:44:24;;;;;;;;;4.67;3.67;;;;;16.08;58.31;100801.28;5139835;27;45548;-74
2023/07/26 00:46:50;;;;;;;;;3.00;3.00;;;;;16.04;58.48;100791.75;5139041;27;45908;-77
2023/07/26 00:49:16;;;;;;;;;3.00;3.00;;;;;16.06;58.20;100791.63;5139252;27;45320;-74
2023/07/26 00:51:41;;;;;;;;;4.33;4.33;;;;;16.00;58.52;100778.66;5140526;27;45376;-74
2023/07/26 00:54:08;;;;;;;;;4.00;4.00;;;;;16.05;58.62;100788.09;5140214;27;45600;-75
2023/07/26 00:56:35;;;;;;;;;4.00;4.00;;;;;16.01;58.33;100796.47;5140563;27;46179;-75
2023/07/26 00:59:01;;;;;;;;;4.67;4.67;;;;;15.99;58.66;100787.69;5117125;27;45466;-76
2023/07/26 01:01:26;;;;;;;;;5.00;5.00;;;;;15.96;58.99;100783.41;5140280;27;45536;-76
2023/07/26 01:03:52;;;;;;;;;4.00;4.00;;;;;15.99;59.04;100793.06;5139307;27;45479;-76
2023/07/26 01:06:32;;;;;;;;;5.33;4.00;;;;;15.95;58.80;100780.84;5120228;27;49228;-76
2023/07/26 01:09:10;;;;;;;;;3.33;3.33;;;;;16.00;58.65;100789.41;5119041;27;45380;-74
2023/07/26 01:11:44;;;;;;;;;4.67;4.67;;;;;16.01;59.13;100788.41;5125573;27;45362;-76
2023/07/26 01:14:40;;;;;;;;;6.00;5.00;;;;;16.04;58.69;100790.91;5139438;27;45331;-73
2023/07/26 01:17:05;;;;;;;;;3.33;3.33;;;;;16.03;58.58;100789.19;5121004;27;45564;-76
2023/07/26 01:19:31;;;;;;;;;3.00;3.00;;;;;16.01;58.71;100785.75;5134075;27;45521;-76
2023/07/26 01:21:56;;;;;;;;;3.67;3.67;;;;;15.99;58.55;100787.69;5119621;27;45447;-76
2023/07/26 01:24:22;;;;;;;;;4.67;4.67;;;;;16.00;58.42;100784.88;5131542;27;45659;-74
2023/07/26 01:26:47;;;;;;;;;6.33;3.33;;;;;15.96;58.46;100777.19;5139879;27;45821;-75
2023/07/26 01:29:12;;;;;;;;;6.33;4.00;;;;;15.93;58.33;100783.66;5138381;27;45397;-74
2023/07/26 01:31:38;;;;;;;;;0.00;0.00;;;;;15.92;58.24;100782.81;5140425;27;45416;-76
2023/07/26 01:34:06;;;;;;;;;4.00;4.00;;;;;15.92;58.65;100782.81;5110086;27;45332;-76
2023/07/26 01:36:32;;;;;;;;;5.00;3.33;;;;;15.95;58.66;100783.53;5118528;27;46319;-75
2023/07/26 01:38:58;;;;;;;;;4.33;3.00;;;;;15.96;58.22;100783.41;5118543;27;45299;-75
2023/07/26 01:41:25;;;;;;;;;2.00;2.00;;;;;15.97;58.11;100779.75;5099725;27;45532;-75
2023/07/26 01:43:50;;;;;;;;;5.00;5.00;;;;;16.00;58.17;100781.34;5118302;27;45465;-76
2023/07/26 01:46:16;;;;;;;;;3.00;3.00;;;;;15.97;57.98;100769.03;5118754;27;46318;-76
2023/07/26 01:48:41;;;;;;;;;6.00;4.33;;;;;16.00;58.38;100778.66;5118196;27;59570;-75
2023/07/26 01:51:07;;;;;;;;;4.67;4.67;;;;;15.95;58.56;100778.16;5114926;27;46147;-75
2023/07/26 01:53:33;;;;;;;;;2.67;2.67;;;;;15.96;58.71;100774.50;5138739;27;45589;-74
2023/07/26 01:56:02;;;;;;;;;3.67;3.67;;;;;15.98;58.37;100784.16;5120140;27;47965;-76
2023/07/26 01:58:28;;;;;;;;;5.33;3.33;;;;;15.92;58.45;100772.06;5139312;27;45300;-74
2023/07/26 02:00:54;;;;;;;;;2.67;2.67;;;;;15.91;58.32;100766.81;5138499;27;45224;-75
2023/07/26 02:03:19;;;;;;;;;3.67;3.67;;;;;15.89;58.33;100772.31;5138534;27;45445;-76
2023/07/26 02:05:46;;;;;;;;;2.67;2.67;;;;;15.97;58.59;100774.41;5120497;27;47246;-75
2023/07/26 02:08:12;;;;;;;;;4.00;4.00;;;;;15.95;58.66;100780.84;5139541;27;45347;-76
2023/07/26 02:10:41;;;;;;;;;3.67;3.67;;;;;15.92;58.79;100776.56;5132810;27;45453;-74
2023/07/26 02:13:07;;;;;;;;;3.33;3.33;;;;;15.87;58.68;100770.69;5137518;27;45602;-76
2023/07/26 02:15:32;;;;;;;;;5.00;5.00;;;;;15.90;58.75;100768.66;5130719;27;45266;-76
2023/07/26 02:17:58;;;;;;;;;4.67;4.67;;;;;15.81;58.86;100753.25;5139080;27;45320;-76
2023/07/26 02:20:23;;;;;;;;;2.67;2.33;;;;;15.81;59.33;100757.75;5138206;27;45271;-76
2023/07/26 02:22:48;;;;;;;;;3.67;3.67;;;;;15.86;59.19;100777.03;5139137;27;45312;-75
2023/07/26 02:25:14;;;;;;;;;3.00;3.00;;;;;15.83;59.12;100767.38;5137268;27;46562;-75
2023/07/26 02:27:40;;;;;;;;;3.33;3.33;;;;;15.86;59.55;100777.88;5120498;27;45499;-75
2023/07/26 02:30:06;;;;;;;;;5.00;4.00;;;;;15.86;59.49;100769.84;5137725;27;45217;-75
2023/07/26 02:32:32;;;;;;;;;7.00;5.67;;;;;15.84;59.59;100774.47;5138976;27;45553;-75
2023/07/26 02:34:57;;;;;;;;;3.00;3.00;;;;;15.85;59.52;100773.50;5122063;27;45562;-75
2023/07/26 02:37:22;;;;;;;;;4.00;4.00;;;;;15.78;59.68;100772.25;5117542;27;45654;-75
2023/07/26 02:39:48;;;;;;;;;4.33;4.33;;;;;15.74;59.55;100765.38;5101660;27;45929;-76
2023/07/26 02:42:14;;;;;;;;;5.00;3.00;;;;;15.74;59.61;100762.72;5139230;27;45557;-76
2023/07/26 02:44:39;;;;;;;;;3.33;3.33;;;;;15.80;59.80;100762.25;5137741;27;45503;-75
2023/07/26 02:47:04;;;;;;;;;5.67;4.00;;;;;15.78;59.81;100760.69;5119397;27;45343;-76
2023/07/26 02:49:31;;;;;;;;;2.00;2.00;;;;;15.85;59.88;100776.16;5135037;27;45332;-75
2023/07/26 02:51:56;;;;;;;;;4.00;2.00;;;;;15.78;59.91;100766.03;5118173;27;45252;-75
2023/07/26 02:54:22;;;;;;;;;3.00;3.00;;;;;15.80;59.75;100767.63;5116653;27;59347;-76
2023/07/26 02:56:47;;;;;;;;;4.00;4.00;;;;;15.82;59.58;100776.41;5098579;27;45269;-74
2023/07/26 02:59:12;;;;;;;;;4.00;4.00;;;;;15.83;59.87;100767.38;5116758;27;60508;-74
2023/07/26 03:01:37;;;;;;;;;4.33;3.67;;;;;15.82;60.23;100771.03;5116218;27;45352;-75
2023/07/26 03:04:03;;;;;;;;;4.00;4.00;;;;;15.82;59.68;100770.19;5098247;27;46675;-75
2023/07/26 03:06:28;;;;;;;;;4.00;4.00;;;;;15.75;60.18;100764.41;5117550;27;45250;-74
2023/07/26 03:08:54;;;;;;;;;4.00;4.00;;;;;15.74;60.32;100765.38;5116923;27;54370;-75
2023/07/26 03:11:19;;;;;;;;;4.00;4.00;;;;;15.63;60.45;100757.31;5117243;27;45402;-76
2023/07/26 03:13:44;;;;;;;;;6.00;5.00;;;;;15.64;60.33;100761.72;5102726;27;46319;-76
2023/07/26 03:16:10;;;;;;;;;3.33;3.33;;;;;15.69;60.62;100775.63;5138100;27;45212;-76
2023/07/26 03:18:35;;;;;;;;;6.00;3.00;;;;;15.71;60.56;100771.00;5137543;27;45468;-74
2023/07/26 03:21:00;;;;;;;;;7.00;4.33;;;;;15.67;60.70;100763.28;5138308;27;45404;-76
2023/07/26 03:23:26;;;;;;;;;6.00;4.00;;;;;15.72;60.15;100780.75;5137061;27;46195;-75
2023/07/26 03:25:51;;;;;;;;;3.00;3.00;;;;;15.65;60.20;100774.13;5138061;27;45385;-75
2023/07/26 03:28:16;;;;;;;;;4.67;3.33;;;;;15.69;60.29;100775.63;5138104;27;45291;-74
2023/07/26 03:30:42;;;;;;;;;5.00;4.00;;;;;15.71;60.54;100786.22;5138525;27;45505;-76
2023/07/26 03:33:08;;;;;;;;;6.00;3.00;;;;;15.66;60.93;100783.88;5137854;27;45387;-75
2023/07/26 03:35:34;;;;;;;;;4.00;4.00;;;;;15.62;60.78;100771.66;5082314;27;45548;-75
2023/07/26 03:37:59;;;;;;;;;5.00;4.00;;;;;15.65;61.08;100784.00;5098522;27;45511;-76
2023/07/26 03:40:25;;;;;;;;;5.00;4.00;;;;;15.63;60.90;100779.63;5098860;27;45587;-74
2023/07/26 03:42:50;;;;;;;;;5.00;4.00;;;;;15.71;60.87;100800.47;5130107;27;62389;-75
2023/07/26 03:45:16;;;;;;;;;4.33;4.33;;;;;15.65;60.80;100792.06;5118381;27;45999;-75
2023/07/26 03:47:42;;;;;;;;;5.00;5.00;;;;;15.66;61.60;100794.63;5137806;27;45228;-75
2023/07/26 03:50:07;;;;;;;;;6.33;6.33;;;;;15.64;61.12;100801.91;5137885;27;45494;-75
2023/07/26 03:52:33;;;;;;;;;5.33;4.00;;;;;15.62;62.07;100796.69;5137441;27;46146;-74
2023/07/26 03:54:58;;;;;;;;;7.00;7.00;;;;;15.66;61.98;100796.44;5122905;27;45342;-74
2023/07/26 03:57:23;;;;;;;;;3.00;3.00;;;;;15.65;62.33;100790.22;5098512;27;45412;-76
2023/07/26 03:59:49;;;;;;;;;5.00;5.00;;;;;15.63;62.92;100798.38;5120549;27;45408;-76
2023/07/26 04:02:14;;;;;;;;;5.33;4.67;;;;;15.60;62.78;100789.69;5120727;27;46140;-76
2023/07/26 04:04:39;;;;;;;;;6.00;4.00;;;;;15.59;62.89;100785.25;5120396;27;45604;-73
2023/07/26 04:07:05;;;;;;;;;5.33;4.00;;;;;15.59;63.66;100786.16;5119627;27;45262;-74
2023/07/26 04:09:32;;;;;;;;;4.00;4.00;;;;;15.50;63.50;100776.09;5120675;27;45357;-75
2023/07/26 04:11:57;;;;;;;;;6.00;5.00;;;;;15.58;63.68;100788.91;5120166;27;46187;-76
2023/07/26 04:14:23;;;;;;;;;4.00;4.00;;;;;15.57;63.82;100789.88;5127286;27;45397;-74
2023/07/26 04:16:49;;;;;;;;;7.00;5.00;;;;;15.55;63.77;100790.00;5122772;27;45425;-75
2023/07/26 04:19:14;;;;;;;;;6.67;4.00;;;;;15.44;64.41;100781.03;5141317;27;45525;-75
2023/07/26 04:21:40;;;;;;;;;5.00;5.00;;;;;15.40;64.33;100763.47;5140406;27;53320;-75
2023/07/26 04:24:05;;;;;;;;;4.00;4.00;;;;;15.53;64.35;100788.41;5112202;27;45426;-75
2023/07/26 04:26:30;;;;;;;;;4.67;4.67;;;;;15.52;64.79;100789.38;5140717;27;45689;-74
2023/07/26 04:28:57;;;;;;;;;4.33;4.00;;;;;15.52;64.94;100784.88;5141225;27;45237;-75
2023/07/26 04:31:22;;;;;;;;;6.00;6.00;;;;;15.49;65.16;100778.88;5121919;27;47058;-75
2023/07/26 04:33:48;;;;;;;;;6.00;6.00;;;;;15.53;64.85;100781.22;5139704;27;45261;-75
2023/07/26 04:36:14;;;;;;;;;6.00;5.00;;;;;15.55;65.52;100779.28;5140997;27;45270;-75
2023/07/26 04:38:39;;;;;;;;;8.33;5.33;;;;;15.51;65.99;100782.31;5140758;27;45229;-75
2023/07/26 04:41:04;;;;;;;;;6.67;6.67;;;;;15.59;65.84;100787.94;5121827;27;48150;-75
2023/07/26 04:43:30;;;;;;;;;4.33;4.33;;;;;15.65;65.45;100792.06;5138856;27;45376;-76
2023/07/26 04:45:55;;;;;;;;;8.67;6.33;;;;;15.69;65.36;100789.03;5140634;27;45244;-75
2023/07/26 04:48:21;;;;;;;;;7.67;6.00;;;;;15.62;65.27;100777.91;5140841;27;45443;-74
2023/07/26 04:50:48;;;;;;;;;6.67;5.67;;;;;15.72;65.25;100786.09;5140594;27;46049;-77
2023/07/26 04:53:14;;;;;;;;;7.00;6.33;;;;;15.80;65.33;100785.53;5115987;27;45268;-75
2023/07/26 04:55:43;;;;;;;;;6.00;6.00;;;;;15.85;65.20;100789.59;5119078;27;45540;-76
2023/07/26 04:58:09;;;;;;;;;6.00;6.00;;;;;15.85;65.24;100786.91;5119428;27;45564;-75
2023/07/26 05:00:38;;;;;;;;;7.33;5.00;;;;;15.89;64.97;100791.09;5119335;27;45599;-76
2023/07/26 05:03:03;;;;;;;;;7.67;6.33;;;;;16.00;64.81;100792.06;5118831;27;45367;-75
2023/07/26 05:05:28;;;;;;;;;6.00;5.00;;;;;16.01;64.84;100791.97;5139684;27;47250;-75
2023/07/26 05:07:53;;;;;;;;;5.00;5.00;;;;;15.99;64.60;100782.31;5121590;27;45472;-75
2023/07/26 05:10:19;;;;;;;;;4.67;4.67;;;;;16.10;64.79;100795.78;5139546;27;49355;-75
2023/07/26 05:12:44;;;;;;;;;5.33;5.33;;;;;16.14;65.13;100802.63;5140099;27;45375;-75
2023/07/26 05:15:10;;;;;;;;;7.00;6.00;;;;;16.19;64.57;100795.09;5139062;27;45859;-76
2023/07/26 05:17:35;;;;;;;;;5.00;5.00;;;;;16.22;64.71;100797.53;5140031;27;45362;-74
2023/07/26 05:20:00;;;;;;;;;5.67;5.00;;;;;16.35;64.50;100806.34;5139617;27;51136;-75
2023/07/26 05:22:26;;;;;;;;;7.00;7.00;;;;;16.43;64.09;100806.63;5130234;27;45338;-74
2023/07/26 05:24:52;;;;;;;;;5.00;5.00;;;;;16.51;63.99;100806.88;5114993;27;45337;-75
2023/07/26 05:27:17;;;;;;;;;5.00;5.00;;;;;16.61;63.90;100806.19;5120113;27;45339;-75
2023/07/26 05:29:42;;;;;;;;;8.67;8.67;;;;;16.66;63.73;100804.81;5123717;27;61435;-75
2023/07/26 05:32:08;;;;;;;;;4.33;3.33;;;;;16.84;63.46;100802.59;5139699;27;45296;-75
2023/07/26 05:34:35;;;;;;;;;9.67;7.33;;;;;16.89;63.42;100811.13;5138040;27;45236;-76
2023/07/26 05:37:01;;;;;;;;;5.33;5.33;;;;;16.97;62.88;100816.75;5141587;27;45552;-75
2023/07/26 05:39:26;;;;;;;;;8.00;6.00;;;;;17.09;63.12;100807.72;5138693;27;45317;-77
2023/07/26 05:41:51;;;;;;;;;6.00;6.00;;;;;17.54;62.35;100812.19;5129851;27;57900;-78
2023/07/26 05:44:17;;;;;;;;;11.00;7.33;;;;;17.83;61.56;100823.25;5127345;27;50138;-76
2023/07/26 05:46:42;;;;;;;;;6.33;6.00;;;;;17.89;61.03;100809.31;5139570;27;45585;-78
2023/07/26 05:49:09;;;;;;;;;1.00;1.00;;;;;17.64;61.42;100786.25;5110527;27;45960;-76
2023/07/26 05:51:34;;;;;;;;;8.00;8.00;;;;;17.57;62.04;100785.03;5136043;27;45440;-78
2023/07/26 05:54:00;;;;;;;;;8.67;5.33;;;;;17.72;61.92;100817.94;5139134;27;48224;-75
2023/07/26 05:56:25;;;;;;;;;9.67;7.00;;;;;17.82;61.93;100832.31;5114783;27;45438;-76
2023/07/26 05:58:51;;;;;;;;;6.67;5.00;;;;;17.87;62.47;100841.75;5117184;27;45595;-76
2023/07/26 06:01:16;;;;;;;;;10.67;8.00;;;;;17.79;61.93;100827.19;5118066;27;45354;-76
2023/07/26 06:03:42;;;;;;;;;8.33;7.00;;;;;17.91;62.16;100840.50;5118550;27;45348;-76
2023/07/26 06:06:08;;;;;;;;;5.00;5.00;;;;;17.89;61.85;100828.16;5121610;27;45362;-77
2023/07/26 06:08:33;;;;;;;;;5.00;5.00;;;;;17.98;62.52;100843.53;5138732;27;45404;-74
2023/07/26 06:10:58;;;;;;;;;6.33;6.33;;;;;18.03;62.15;100841.31;5138244;27;45241;-77
2023/07/26 06:13:24;;;;;;;;;12.00;7.67;;;;;18.00;62.33;100829.97;5139475;27;45227;-77
2023/07/26 06:15:49;;;;;;;;;9.67;8.33;;;;;18.14;62.40;100833.19;5119493;27;45233;-78
2023/07/26 06:18:16;;;;;;;;;5.67;5.67;;;;;18.28;62.20;100832.88;5118118;27;47465;-77
2023/07/26 06:20:41;;;;;;;;;7.33;7.33;;;;;18.97;61.26;100842.31;5117108;27;45771;-77
2023/07/26 06:23:07;;;;;;;;;7.33;6.33;;;;;20.01;57.63;100823.06;5118263;27;45318;-77
2023/07/26 06:25:32;;;;;;;;;7.50;6.50;;;;;20.22;56.68;100831.03;5099593;27;45531;-77
2023/07/26 06:27:58;;;;;;;;;7.33;6.00;;;;;19.88;57.22;100835.97;5117736;27;45468;-77
2023/07/26 06:30:23;;;;;;;;;6.00;4.50;;;;;19.64;58.24;100849.84;5099804;27;45516;-74
2023/07/26 06:32:49;;;;;;;;;8.00;8.00;;;;;19.43;58.86;100860.69;5120636;27;45486;-77
2023/07/26 06:35:15;;;;;;;;;8.67;7.00;;;;;19.27;59.26;100855.81;5134598;27;45546;-77
2023/07/26 06:37:40;;;;;;;;;10.67;7.00;;;;;19.11;59.93;100860.81;5125032;27;45334;-78
2023/07/26 06:40:06;;;;;;;;;7.67;7.67;;;;;19.00;60.22;100863.59;5120881;27;45414;-76
2023/07/26 06:42:32;;;;;;;;;10.00;7.67;;;;;18.98;60.14;100870.97;5118663;27;45538;-76
2023/07/26 06:44:58;;;;;;;;;9.00;7.00;;;;;18.99;60.21;100872.66;5120553;27;45805;-75
2023/07/26 06:47:23;;;;;;;;;11.67;8.00;;;;;18.85;60.39;100839.69;5105355;27;45682;-75
2023/07/26 06:49:49;;;;;;;;;10.33;7.67;;;;;19.06;60.27;100863.91;5135767;27;45352;-77
2023/07/26 06:52:15;;;;;;;;;6.00;6.00;;;;;19.06;59.74;100853.13;5117956;27;45285;-75
2023/07/26 06:54:40;;;;;;;;;8.67;8.67;;;;;19.06;60.09;100858.53;5107233;27;45629;-75
2023/07/26 06:57:06;;;;;;;;;9.00;9.00;;;;;19.14;59.94;100872.22;5114833;27;46512;-77
2023/07/26 06:59:31;;;;;;;;;7.67;7.67;;;;;19.17;59.68;100876.47;5115239;27;45503;-76
2023/07/26 07:01:57;;;;;;;;;9.00;9.00;;;;;19.16;60.00;100874.75;5123275;27;45471;-76
2023/07/26 07:04:22;;;;;;;;;9.00;8.00;;;;;18.88;60.22;100829.63;5136027;27;45595;-76
2023/07/26 07:06:48;;;;;;;;;8.00;8.00;;;;;18.90;60.65;100865.41;5117636;27;51766;-77
2023/07/26 07:09:15;;;;;;;;;8.00;8.00;;;;;18.92;60.90;100866.13;5137540;27;46001;-77
2023/07/26 07:11:40;;;;;;;;;11.67;10.67;;;;;18.95;60.82;100865.84;5118631;27;45473;-77
2023/07/26 07:14:06;;;;;;;;;8.33;8.33;;;;;18.88;61.15;100859.25;5123194;27;45569;-77
2023/07/26 07:16:32;;;;;;;;;11.00;8.00;;;;;18.94;61.50;100858.75;5136084;27;46248;-77
2023/07/26 07:18:57;;;;;;;;;12.67;9.67;;;;;18.72;61.09;100808.53;5137554;27;45364;-77
2023/07/26 07:21:23;;;;;;;;;11.67;9.33;;;;;19.07;60.85;100859.38;5123551;27;45486;-75
2023/07/26 07:23:48;;;;;;;;;13.00;11.33;;;;;19.09;60.67;100869.03;5130570;27;45497;-77
2023/07/26 07:26:13;;;;;;;;;14.00;10.67;;;;;19.14;60.82;100872.22;5136483;27;46089;-77
2023/07/26 07:28:39;;;;;;;;;8.33;8.33;;;;;18.99;60.79;100860.03;5130327;27;45425;-76
2023/07/26 07:31:04;;;;;;;;;8.00;7.00;;;;;19.11;60.93;100867.06;5104699;27;45955;-77
2023/07/26 07:33:30;;;;;;;;;13.00;9.33;;;;;19.12;60.93;100871.47;5138074;27;45658;-76
2023/07/26 07:35:55;;;;;;;;;9.33;8.00;;;;;19.13;60.77;100864.22;5122163;27;46781;-76
2023/07/26 07:38:21;;;;;;;;;7.67;6.67;;;;;19.29;60.57;100875.41;5132885;27;53956;-76
2023/07/26 07:40:47;;;;;;;;;10.00;10.00;;;;;19.40;60.22;100875.31;5126827;27;45496;-76
2023/07/26 07:43:12;;;;;;;;;11.33;9.67;;;;;19.39;60.07;100862.78;5140934;27;45576;-76
2023/07/26 07:45:41;;;;;;;;;9.67;8.33;;;;;19.41;59.81;100854.59;5138235;27;45937;-74
2023/07/26 07:48:07;;;;;;;;;13.67;10.67;;;;;19.48;59.43;100852.19;5136575;27;45287;-77
2023/07/26 07:50:32;;;;;;;;;8.33;8.33;;;;;19.59;59.55;100854.81;5130765;27;45478;-76
2023/07/26 07:52:58;;;;;;;;;12.00;9.00;;;;;19.61;59.25;100850.97;5140953;27;45429;-76
2023/07/26 07:55:23;;;;;;;;;13.00;9.00;;;;;19.68;59.13;100857.53;5138893;27;46128;-77
2023/07/26 07:57:48;;;;;;;;;7.67;7.00;;;;;19.67;58.77;100855.84;5131736;27;50172;-75
2023/07/26 08:00:14;;;;;;;;;5.33;5.33;;;;;19.67;58.77;100857.69;5114580;27;45424;-75
2023/07/26 08:02:40;;;;;;;;;8.67;7.67;;;;;19.63;58.19;100834.63;5119973;27;45338;-77
2023/07/26 08:05:05;;;;;;;;;9.67;7.67;;;;;19.84;57.95;100859.69;5115233;27;47347;-76
2023/07/26 08:07:31;;;;;;;;;8.33;5.33;;;;;19.81;57.91;100854.59;5134877;27;45371;-77
2023/07/26 08:09:56;;;;;;;;;5.67;5.67;;;;;19.68;58.14;100857.53;5130111;27;45335;-76
2023/07/26 08:12:21;;;;;;;;;8.00;7.00;;;;;19.58;58.22;100858.50;5135615;27;45496;-75
2023/07/26 08:14:49;;;;;;;;;7.00;7.00;;;;;19.74;57.39;100864.22;5132503;27;60111;-74
2023/07/26 08:17:15;;;;;;;;;5.00;5.00;;;;;19.76;57.10;100851.44;5140232;27;45488;-75
2023/07/26 08:19:40;;;;;;;;;7.33;5.33;;;;;19.84;56.80;100859.69;5139076;27;45501;-77
2023/07/26 08:22:05;;;;;;;;;7.00;6.00;;;;;19.99;56.15;100863.69;5137692;27;53978;-76
2023/07/26 08:24:31;;;;;;;;;5.33;3.67;;;;;19.96;56.02;100858.59;5132263;27;46030;-77
2023/07/26 08:26:56;;;;;;;;;4.00;3.33;;;;;19.90;55.83;100853.72;5139690;27;61988;-75
2023/07/26 08:29:21;;;;;;;;;4.00;4.00;;;;;20.10;55.71;100870.81;5134443;27;45365;-74
2023/07/26 08:31:47;;;;;;;;;3.33;3.00;;;;;20.08;55.27;100837.72;5121890;27;45457;-77
2023/07/26 08:34:12;;;;;;;;;5.00;5.00;;;;;20.23;55.25;100855.19;5126646;27;45415;-77
2023/07/26 08:36:37;;;;;;;;;3.33;3.33;;;;;20.34;55.08;100867.72;5123455;27;46570;-77
2023/07/26 08:39:03;;;;;;;;;9.00;6.00;;;;;20.15;54.69;100827.19;5139280;27;45450;-77
2023/07/26 08:41:30;;;;;;;;;6.00;4.67;;;;;20.40;54.48;100860.88;5132920;27;45447;-77
2023/07/26 08:43:59;;;;;;;;;4.33;4.33;;;;;20.50;53.48;100869.88;5115908;27;46030;-77
2023/07/26 08:46:27;;;;;;;;;7.00;4.00;;;;;20.49;53.45;100871.72;5139935;27;45480;-75
2023/07/26 08:48:53;;;;;;;;;5.00;4.00;;;;;20.41;51.63;100858.03;5115115;27;45391;-76
2023/07/26 08:51:20;;;;;;;;;5.33;5.33;;;;;20.42;52.97;100857.06;5137800;27;45638;-76
2023/07/26 08:53:47;;;;;;;;;4.00;4.00;;;;;20.47;52.25;100864.75;5110622;27;47999;-76
2023/07/26 08:56:14;;;;;;;;;4.67;4.00;;;;;20.52;51.39;100865.16;5112256;27;45486;-78
2023/07/26 08:58:40;;;;;;;;;3.33;3.00;;;;;20.64;49.46;100868.56;5125965;27;45540;-75
2023/07/26 09:01:06;;;;;;;;;2.67;2.67;;;;;20.60;50.10;100852.66;5134045;27;45663;-76
2023/07/26 09:03:34;;;;;;;;;4.33;1.00;;;;;20.59;47.91;100828.47;5128728;27;46335;-75
2023/07/26 09:06:07;;;;;;;;;3.33;3.00;;;;;20.87;48.17;100854.59;5133035;27;45427;-77
2023/07/26 09:08:34;;;;;;;;;3.00;3.00;;;;;20.98;47.15;100850.88;5133135;27;45650;-76
2023/07/26 09:11:03;;;;;;;;;2.00;2.00;;;;;20.99;46.14;100827.38;5116778;27;45445;-77
2023/07/26 09:13:29;;;;;;;;;6.00;4.00;;;;;21.10;46.42;100838.88;5138843;27;46396;-76
2023/07/26 09:15:55;;;;;;;;;1.33;1.33;;;;;21.09;46.25;100830.88;5139630;27;45516;-76
2023/07/26 09:18:20;;;;;;;;;2.00;2.00;;;;;20.95;46.48;100829.50;5136701;27;45431;-77
2023/07/26 09:20:46;;;;;;;;;2.33;2.33;;;;;20.93;45.94;100847.72;5139394;27;45677;-74
2023/07/26 09:23:12;;;;;;;;;5.00;3.33;;;;;21.07;46.48;100849.97;5138219;27;45443;-76
2023/07/26 09:25:40;;;;;;;;;1.67;1.67;;;;;21.15;45.03;100841.97;5131237;27;45575;-76
2023/07/26 09:28:07;;;;;;;;;3.00;3.00;;;;;21.17;45.50;100850.78;5117670;27;45311;-76
2023/07/26 09:30:41;;;;;;;;;4.67;3.00;;;;;21.04;46.04;100828.63;5132310;27;45501;-76
2023/07/26 09:33:08;;;;;;;;;3.33;3.33;;;;;21.15;46.24;100844.69;5122701;27;45745;-77
2023/07/26 09:35:45;;;;;;;;;5.67;3.67;;;;;21.16;46.41;100849.09;5137722;27;45446;-75
2023/07/26 09:38:16;;;;;;;;;11.67;8.67;;;;;21.08;46.21;100857.06;5135895;27;45450;-75
2023/07/26 09:40:42;;;;;;;;;46.25;39.00;;;;;21.00;45.82;100859.69;5133234;27;45493;-76
2023/07/26 09:43:08;;;;;;;;;53.75;45.00;;;;;21.06;45.76;100867.19;5134602;27;45516;-76
2023/07/26 09:45:33;;;;;;;;;8.33;8.33;;;;;21.12;45.67;100850.38;5136644;27;45430;-78
2023/07/26 09:48:07;;;;;;;;;5.00;5.00;;;;;21.32;45.28;100858.44;5124753;27;45500;-78
2023/07/26 09:50:33;;;;;;;;;2.33;1.00;;;;;21.28;44.54;100863.31;5129794;27;45324;-78
2023/07/26 09:52:58;;;;;;;;;1.67;1.67;;;;;20.94;45.33;100829.66;5135172;27;45440;-76
2023/07/26 09:55:27;;;;;;;;;2.00;2.00;;;;;21.04;44.89;100828.63;5118992;27;45595;-77
2023/07/26 09:57:53;;;;;;;;;2.00;2.00;;;;;21.37;44.56;100869.69;5133379;27;45426;-77
2023/07/26 10:00:24;;;;;;;;;4.00;2.67;;;;;21.20;44.49;100866.72;5133896;27;45665;-77
2023/07/26 10:03:04;;;;;;;;;2.33;0.67;;;;;21.24;44.64;100858.34;5134037;27;45503;-76
2023/07/26 10:05:36;;;;;;;;;2.00;2.00;;;;;21.39;44.70;100862.28;5138839;27;45387;-77
2023/07/26 10:08:02;;;;;;;;;4.00;4.00;;;;;21.49;45.13;100855.81;5129904;27;45463;-77
2023/07/26 10:10:29;;;;;;;;;2.67;2.67;;;;;21.63;44.38;100859.03;5132777;27;45522;-77
2023/07/26 10:12:57;;;;;;;;;2.00;2.00;;;;;21.51;44.58;100852.97;5138050;27;45615;-77
2023/07/26 10:15:24;;;;;;;;;2.00;2.00;;;;;21.57;44.30;100865.03;5129581;27;45420;-77
2023/07/26 10:17:52;;;;;;;;;3.67;1.67;;;;;21.64;44.64;100858.88;5128731;27;45718;-77
2023/07/26 10:20:17;;;;;;;;;2.00;2.00;;;;;21.78;44.09;100871.06;5134756;27;45394;-77
2023/07/26 10:22:43;;;;;;;;;4.00;3.00;;;;;22.00;43.49;100861.63;5129423;27;46450;-76
2023/07/26 10:25:09;;;;;;;;;3.00;3.00;;;;;22.13;44.04;100867.56;5138027;27;45502;-76
2023/07/26 10:27:36;;;;;;;;;2.67;2.67;;;;;22.15;43.97;100862.00;5119396;27;45272;-77
2023/07/26 10:30:02;;;;;;;;;1.50;1.50;;;;;22.00;43.49;100848.94;5138369;27;45253;-77
2023/07/26 10:32:28;;;;;;;;;2.00;2.00;;;;;22.11;43.38;100863.28;5138216;27;45474;-78
2023/07/26 10:34:58;;;;;;;;;1.50;1.50;;;;;22.15;42.66;100862.00;5129982;27;45462;-79
2023/07/26 10:37:32;;;;;;;;;1.50;1.50;;;;;22.16;43.14;100851.00;5134383;27;45478;-77
2023/07/26 10:39:58;;;;;;;;;3.25;1.50;;;;;22.29;42.62;100850.63;5122514;27;45306;-78
2023/07/26 10:42:25;;;;;;;;;2.00;1.75;;;;;22.37;42.79;100840.69;5119120;27;45614;-78
2023/07/26 10:44:53;;;;;;;;;2.25;2.25;;;;;22.43;41.84;100843.81;5135252;27;45275;-77
2023/07/26 10:47:18;;;;;;;;;1.75;1.75;;;;;22.40;40.94;100828.72;5117837;27;45438;-77
2023/07/26 10:49:46;;;;;;;;;4.75;1.75;;;;;22.41;41.83;100829.56;5118077;27;45579;-76
2023/07/26 10:52:12;;;;;;;;;3.00;2.00;;;;;22.59;42.35;100841.22;5134234;27;46354;-76
2023/07/26 10:54:48;;;;;;;;;4.25;4.25;;;;;22.64;41.38;100836.16;5138246;27;45252;-76
2023/07/26 10:57:21;;;;;;;;;3.00;2.75;;;;;22.65;40.38;100832.44;5138391;27;45332;-76
2023/07/26 10:59:50;;;;;;;;;1.00;1.00;;;;;22.77;39.14;100858.28;5133921;27;45474;-77
2023/07/26 11:02:34;;;;;;;;;2.75;1.50;;;;;22.57;39.67;100835.09;5117559;27;45418;-75
2023/07/26 11:05:02;;;;;;;;;3.75;2.25;;;;;22.52;39.13;100823.88;5117714;27;45392;-76
2023/07/26 11:07:49;;;;;;;;;2.00;2.00;;;;;22.72;39.17;100843.50;5098188;27;45437;-76
2023/07/26 11:10:20;;;;;;;;;1.00;1.00;;;;;22.87;38.59;100841.94;5122902;27;45452;-76
2023/07/26 11:12:49;;;;;;;;;3.00;3.00;;;;;23.04;38.59;100837.47;5137059;27;45216;-77
2023/07/26 11:15:25;;;;;;;;;2.00;2.00;;;;;23.32;38.03;100847.16;5120729;27;45399;-75
2023/07/26 11:17:53;;;;;;;;;1.25;1.25;;;;;23.43;38.06;100833.25;5128037;27;45541;-77
2023/07/26 11:20:18;;;;;;;;;2.00;2.00;;;;;23.42;37.88;100838.84;5128739;27;45974;-76